createdAt,value
2022-12-16T00:05:31.089Z,-0.51
2022-12-16T00:11:01.994Z,-0.54
2022-12-16T00:16:33.727Z,-0.66
2022-12-16T00:22:05.625Z,-0.52
2022-12-16T00:27:43.566Z,-0.36
2022-12-16T00:33:15.479Z,-0.4
2022-12-16T00:38:47.085Z,-0.87
2022-12-16T00:44:18.860Z,-0.99
2022-12-16T00:49:50.646Z,-1.15
2022-12-16T00:55:22.148Z,-1.12
2022-12-16T01:00:54.087Z,-1.27
2022-12-16T01:06:25.831Z,-1.36
2022-12-16T01:11:57.311Z,-1.26
2022-12-16T01:17:29.012Z,-1.18
2022-12-16T01:23:00.787Z,-0.96
2022-12-16T01:28:36.859Z,-1.03
2022-12-16T01:34:08.776Z,-1.09
2022-12-16T01:39:40.531Z,-1.07
2022-12-16T01:45:12.280Z,-1.19
2022-12-16T01:50:43.980Z,-1.41
2022-12-16T01:56:15.507Z,-1.47
2022-12-16T02:01:47.506Z,-1.3
2022-12-16T02:07:18.963Z,-1.33
2022-12-16T02:12:51.219Z,-1.19
2022-12-16T02:18:22.616Z,-0.98
2022-12-16T02:23:54.299Z,-1.13
2022-12-16T02:29:30.263Z,-1.34
2022-12-16T02:35:02.759Z,-1.38
2022-12-16T02:40:33.867Z,-1.34
2022-12-16T02:46:05.638Z,-1.35
2022-12-16T02:51:37.203Z,-1.37
2022-12-16T02:57:09.146Z,-1.27
2022-12-16T03:02:40.680Z,-1.02
2022-12-16T03:08:12.471Z,-0.8
2022-12-16T03:13:44.011Z,-0.49
2022-12-16T03:19:15.881Z,-0.38
2022-12-16T03:24:47.491Z,-0.38
2022-12-16T03:30:23.794Z,-0.75
2022-12-16T03:35:55.320Z,-1.03
2022-12-16T03:41:27.043Z,-1.08
2022-12-16T03:46:58.883Z,-1.29
2022-12-16T03:52:30.469Z,-1.29
2022-12-16T03:58:02.715Z,-1.14
2022-12-16T04:03:34.422Z,-0.71
2022-12-16T04:09:05.890Z,-0.91
2022-12-16T04:14:37.527Z,-0.98
2022-12-16T04:20:09.358Z,-1.15
2022-12-16T04:25:40.978Z,-1.12
2022-12-16T04:31:17.201Z,-1.31
2022-12-16T04:36:49.114Z,-1.06
2022-12-16T04:42:20.576Z,-0.67
2022-12-16T04:47:57.039Z,-0.33
2022-12-16T04:53:23.886Z,-0.15
2022-12-16T04:58:56.089Z,-0.1
2022-12-16T05:04:27.215Z,-0.34
2022-12-16T05:09:58.973Z,-0.5
2022-12-16T05:15:31.157Z,-0.46
2022-12-16T05:21:02.609Z,-0.45
2022-12-16T05:26:34.153Z,-0.61
2022-12-16T05:32:12.529Z,-0.64
2022-12-16T05:37:44.166Z,-0.49
2022-12-16T05:43:16.953Z,-0.53
2022-12-16T05:48:47.916Z,-0.43
2022-12-16T05:54:19.141Z,-0.55
2022-12-16T05:59:51.042Z,-0.74
2022-12-16T06:05:22.552Z,-0.67
2022-12-16T06:10:54.289Z,-0.67
2022-12-16T06:16:26.037Z,-0.5
2022-12-16T06:21:57.714Z,-0.81
2022-12-16T06:27:29.460Z,-0.7
2022-12-16T06:33:05.547Z,-0.98
2022-12-16T06:38:37.326Z,-0.88
2022-12-16T06:44:09.239Z,-0.85
2022-12-16T06:49:40.963Z,-0.75
2022-12-16T06:55:12.651Z,-0.61
2022-12-16T07:00:44.495Z,-0.74
2022-12-16T07:06:15.914Z,-0.92
2022-12-16T07:11:47.902Z,-1.05
2022-12-16T07:17:19.383Z,-1.22
2022-12-16T07:22:58.627Z,-0.88
2022-12-16T07:28:22.809Z,-1.01
2022-12-16T07:33:58.967Z,-0.92
2022-12-16T07:39:30.772Z,-0.68
2022-12-16T07:45:02.606Z,-0.81
2022-12-16T07:50:34.892Z,-1.2
2022-12-16T07:56:06.057Z,-1.4
2022-12-16T08:01:37.784Z,-0.98
2022-12-16T08:07:09.302Z,-0.95
2022-12-16T08:12:40.987Z,-0.9
2022-12-16T08:18:12.744Z,-0.97
2022-12-16T08:23:44.407Z,-1.15
2022-12-16T08:29:42.342Z,-1.19
2022-12-16T08:34:54.298Z,-1.3
2022-12-16T08:40:35.112Z,-1.09
2022-12-16T08:45:57.930Z,-0.93
2022-12-16T08:51:29.497Z,-1.03
2022-12-16T08:57:01.203Z,-1.05
2022-12-16T09:02:33.136Z,-1.13
2022-12-16T09:08:04.852Z,-1.05
2022-12-16T09:13:36.629Z,-1.1
2022-12-16T09:19:08.309Z,-1.04
2022-12-16T09:24:40.150Z,-0.93
2022-12-16T09:30:11.802Z,-1.03
2022-12-16T09:35:47.730Z,-0.85
2022-12-16T09:41:19.617Z,-0.74
2022-12-16T09:46:51.219Z,-0.78
2022-12-16T09:52:23.010Z,-0.66
2022-12-16T09:57:54.801Z,-0.84
2022-12-16T10:03:26.616Z,-0.71
2022-12-16T10:08:58.041Z,-0.64
2022-12-16T10:14:29.838Z,-0.49
2022-12-16T10:20:06.059Z,-0.34
2022-12-16T10:25:33.478Z,-0.16
2022-12-16T10:31:05.146Z,-0.2
2022-12-16T10:36:43.036Z,-0.41
2022-12-16T10:42:14.939Z,-0.42
2022-12-16T10:47:46.736Z,-0.13
2022-12-16T10:53:18.345Z,-0.21
2022-12-16T10:58:49.946Z,-0.15
2022-12-16T11:04:21.921Z,-0.08
2022-12-16T11:09:53.539Z,-0.29
2022-12-16T11:15:29.584Z,-0.27
2022-12-16T11:20:56.827Z,-0.21
2022-12-16T11:26:31.858Z,-0.22
2022-12-16T11:32:01.422Z,0.18
2022-12-16T11:37:36.395Z,-0.06
2022-12-16T11:43:11.713Z,-0.14
2022-12-16T11:48:39.856Z,0.22
2022-12-16T11:54:11.735Z,0.07
2022-12-16T11:59:43.257Z,-0.21
2022-12-16T12:05:15.036Z,0.05
2022-12-16T12:10:46.912Z,0.16
2022-12-16T12:16:18.510Z,-0.06
2022-12-16T12:21:50.639Z,-0.19
2022-12-16T12:27:21.891Z,-0.33
2022-12-16T12:32:53.637Z,-0.68
2022-12-16T12:38:32.013Z,-0.57
2022-12-16T12:44:03.499Z,-0.39
2022-12-16T12:49:35.196Z,-0.13
2022-12-16T12:55:07.333Z,-0.13
2022-12-16T13:00:38.709Z,-0.26
2022-12-16T13:06:10.612Z,0.04
2022-12-16T13:11:42.096Z,-0.04
2022-12-16T13:17:13.946Z,-0.01
2022-12-16T13:22:45.841Z,0.01
2022-12-16T13:28:17.218Z,-0.06
2022-12-16T13:33:48.966Z,-0.29
2022-12-16T13:39:27.100Z,-0.05
2022-12-16T13:44:59.178Z,0.12
2022-12-16T13:50:30.729Z,-0.17
2022-12-16T13:56:02.302Z,0.01
2022-12-16T14:01:34.071Z,0.28
2022-12-16T14:07:05.711Z,-0.11
2022-12-16T14:12:37.424Z,-0.21
2022-12-16T14:18:09.254Z,-0.26
2022-12-16T14:23:56.187Z,-0.38
2022-12-16T14:29:12.568Z,-0.24
2022-12-16T14:34:44.488Z,-0.38
2022-12-16T14:40:20.665Z,-0.39
2022-12-16T14:45:52.397Z,-0.65
2022-12-16T14:51:23.904Z,-0.54
2022-12-16T14:56:55.847Z,-0.46
2022-12-16T15:02:27.570Z,-0.62
2022-12-16T15:07:59.059Z,-0.43
2022-12-16T15:13:31.120Z,-0.52
2022-12-16T15:19:02.577Z,-0.25
2022-12-16T15:24:34.245Z,-0.65
2022-12-16T15:30:06.132Z,-0.55
2022-12-16T15:35:37.655Z,-0.59
2022-12-16T15:41:13.838Z,-0.32
2022-12-16T15:46:45.738Z,-0.56
2022-12-16T15:52:17.399Z,-0.5
2022-12-16T15:57:48.967Z,-0.41
2022-12-16T16:03:20.778Z,-0.69
2022-12-16T16:08:52.567Z,-0.65
2022-12-16T16:14:24.495Z,-0.47
2022-12-16T16:19:58.897Z,-0.48
2022-12-16T16:25:28.010Z,-0.42
2022-12-16T16:30:59.475Z,-0.78
2022-12-16T16:36:31.267Z,-0.93
2022-12-16T16:42:09.553Z,-0.86
2022-12-16T16:47:40.891Z,-0.82
2022-12-16T16:53:12.583Z,-1.11
2022-12-16T16:58:44.455Z,-1.13
2022-12-16T17:04:16.296Z,-0.94
2022-12-16T17:09:47.991Z,-1.21
2022-12-16T17:15:19.619Z,-0.9
2022-12-16T17:20:51.439Z,-1.29
2022-12-16T17:26:23.124Z,-1.03
2022-12-16T17:31:54.975Z,-1.06
2022-12-16T17:37:27.043Z,-1.02
2022-12-16T17:43:02.547Z,-1.04
2022-12-16T17:48:34.652Z,-1.11
2022-12-16T17:54:12.251Z,-1.16
2022-12-16T17:59:37.671Z,-0.9
2022-12-16T18:05:09.598Z,-0.69
2022-12-16T18:10:41.083Z,-0.59
2022-12-16T18:16:12.910Z,-0.8
2022-12-16T18:21:44.547Z,-0.88
2022-12-16T18:27:16.267Z,-0.85
2022-12-16T18:32:48.287Z,-1.05
2022-12-16T18:38:19.735Z,-1.07
2022-12-16T18:43:57.863Z,-0.9
2022-12-16T18:49:30.168Z,-0.89
2022-12-16T18:55:01.411Z,-0.74
2022-12-16T19:00:33.048Z,-1.12
2022-12-16T19:06:04.783Z,-0.77
2022-12-16T19:11:36.629Z,-0.84
2022-12-16T19:17:08.249Z,-1.08
2022-12-16T19:22:39.963Z,-0.91
2022-12-16T19:28:11.659Z,-0.64
2022-12-16T19:33:43.691Z,-0.6
2022-12-16T19:39:15.386Z,-0.7
2022-12-16T19:44:53.611Z,-0.63
2022-12-16T19:50:25.090Z,-0.57
2022-12-16T19:55:56.830Z,-0.54
2022-12-16T20:01:28.719Z,-0.4
2022-12-16T20:07:00.377Z,-0.55
2022-12-16T20:12:32.088Z,-0.43
2022-12-16T20:18:03.662Z,-0.46
2022-12-16T20:23:35.335Z,-0.67
2022-12-16T20:29:07.063Z,-0.5
2022-12-16T20:34:38.974Z,-0.53
2022-12-16T20:40:10.792Z,-0.72
2022-12-16T20:45:48.645Z,-0.66
2022-12-16T20:51:26.141Z,-0.76
2022-12-16T20:52:20.691Z,-0.76
2022-12-16T20:56:52.335Z,-0.52
2022-12-16T21:02:26.947Z,-0.47
2022-12-16T21:07:55.595Z,-0.43
2022-12-16T21:08:55.892Z,-0.43
2022-12-16T21:13:27.340Z,-0.6
2022-12-16T21:18:59.111Z,-0.48
2022-12-16T21:24:30.927Z,-0.44
2022-12-16T21:30:02.460Z,-0.44
2022-12-16T21:35:35.196Z,-0.47
2022-12-16T21:41:05.970Z,-0.45
2022-12-16T21:46:44.225Z,-0.37
2022-12-16T21:52:15.758Z,-0.35
2022-12-16T21:57:48.061Z,-0.39
2022-12-16T22:03:19.397Z,-0.78
2022-12-16T22:08:51.743Z,-0.88
2022-12-16T22:14:23.296Z,-1.16
2022-12-16T22:19:56.132Z,-1.28
2022-12-16T22:25:26.101Z,-1.54
2022-12-16T22:30:57.833Z,-1.6
2022-12-16T22:36:29.826Z,-1.71
2022-12-16T22:42:01.462Z,-1.79
2022-12-16T22:47:39.679Z,-1.92
2022-12-16T22:53:11.080Z,-2.07
2022-12-16T22:58:42.808Z,-2.13
2022-12-16T23:04:14.591Z,-2.17
2022-12-16T23:09:46.285Z,-2.27
2022-12-16T23:15:18.151Z,-2.46
2022-12-16T23:20:49.766Z,-2.49
2022-12-16T23:26:21.610Z,-2.43
2022-12-16T23:31:53.150Z,-2.46
2022-12-16T23:37:25.043Z,-2.58
2022-12-16T23:42:56.892Z,-2.58
2022-12-16T23:48:33.198Z,-2.59
2022-12-16T23:54:04.447Z,-2.57
2022-12-16T23:59:36.179Z,-2.58
